Terminal Aerodrome Forecast
Issued by NWS

Home | Current Version | Previous Version | Text Only | Print | Product List | Glossary On
Versions: 1 2 3 4 5 6 7 8 9 10 11 12 13 14 15 16 17 18 19 20 21 22 23 24 25 26 27
000
FTUS45 KBOI 271856 AAA
TAFBKE
TAF AMD
KBKE 271856Z 2719/2818 32012KT P6SM VCTS BKN070CB
      TEMPO 2721/2801 VRB15G30KT -TSRA BKN070CB
     FM280300 29005KT P6SM FEW100=

USA.gov is the U.S. government's official web portal to all federal, state and local government web resources and services.